Mariana — HP5173 — position and weather

sailwx.info

Track history (hours):
 
Tides and Currents Weather Stations Pressure Air Temp Water Temp Dewpoint Dewpoint Depression Visibility Wind Speed Wind Dir Waves Ship Positions

Mariana

Last reported at 2017-Oct-05 15:19 UTC. Time now 2017-Nov-19 12:24 UTC.
Position N 38°51' W 031°07'.
Warning: this ship's position is 44 days out of date.

Length 180 m; draft 9.4 m.

Type: Cargo ship. MMSI: 373923000.

Date/timePositionNaut miles runAvg speedWind from/ knotsBaromVisibWave heightAir tempDewpointWater temp
2017-Oct-05 15:19N 38°51' W 031°07'611.4
2017-Oct-05 14:46N 38°53' W 030°59'511.7
2017-Oct-05 14:22N 38°55' W 030°54'411.7
2017-Oct-05 14:00N 38°57' W 030°49'611.4
2017-Oct-05 13:30N 38°59' W 030°42'611.7
2017-Oct-05 13:00N 39°02' W 030°35'611.9
2017-Oct-05 12:28N 39°04' W 030°28'511.8
2017-Oct-05 12:00N 39°07' W 030°22'611.9
2017-Oct-05 11:31N 39°09' W 030°15'612.0
2017-Oct-05 11:00N 39°12' W 030°08'611.8
2017-Oct-05 10:30N 39°14' W 030°01'612.2
2017-Oct-05 10:00N 39°17' W 029°54'612.5
2017-Oct-05 09:30N 39°20' W 029°47'612.2
2017-Oct-05 09:00N 39°23' W 029°40'612.1
2017-Oct-05 08:30N 39°26' W 029°33'612.3
2017-Oct-05 08:00N 39°29' W 029°26'612.4
2017-Oct-05 07:31N 39°32' W 029°19'612.1
2017-Oct-05 07:00N 39°35' W 029°12'612.2
2017-Oct-05 06:30N 39°38' W 029°05'612.5
2017-Oct-05 06:01N 39°41' W 028°58'612.4
2017-Oct-05 05:30N 39°44' W 028°51'612.3
2017-Oct-05 05:00N 39°47' W 028°44'612.1
2017-Oct-05 04:31N 39°50' W 028°38'612.1
2017-Oct-05 04:01N 39°53' W 028°31'1012.5
2017-Oct-05 03:13N 39°58' W 028°19'412.1
2017-Oct-05 02:55N 39°60' W 028°15'812.0
2017-Oct-05 02:14N 40°04' W 028°06'7412.6
2017-Oct-04 20:24N 40°40' W 026°42'  
2017-Oct-01 16:25N 47°52' W 008°48'610.3
2017-Oct-01 15:48N 47°55' W 008°39'310.1
2017-Oct-01 15:30N 47°57' W 008°35'610.5
2017-Oct-01 14:55N 47°60' W 008°28'37010.0
2017-Sep-30 01:57N 49°26' E 000°37'2 0.0
2017-Sep-28 13:05N 49°27' E 000°39'112.9
2017-Sep-28 13:00N 49°26' E 000°38'510.6
2017-Sep-28 12:30N 49°29' E 000°31'612.5
2017-Sep-28 12:00N 49°26' E 000°22'612.4
2017-Sep-28 11:30N 49°26' E 000°13'612.5
2017-Sep-28 11:00N 49°27' E 000°03'511.0
2017-Sep-28 10:30N 49°29' W 000°04'2 3.7
2017-Sep-28 09:59N 49°28' W 000°07'0 0.1
2017-Sep-28 09:29N 49°28' W 000°07'0 0.0
2017-Sep-28 08:59N 49°28' W 000°07'0 0.0
2017-Sep-28 08:29N 49°28' W 000°07'0 0.0
2017-Sep-28 07:59N 49°28' W 000°07'0 0.0
2017-Sep-28 07:29N 49°28' W 000°07'0 0.4
2017-Sep-28 06:58N 49°28' W 000°07'0 0.1
2017-Sep-28 06:30N 49°28' W 000°08'2 3.4
2017-Sep-28 06:00N 49°30' W 000°09'5 9.9
2017-Sep-28 05:30N 49°31' W 000°16'612.0
2017-Sep-28 05:00N 49°34' W 000°24'1913.0
2017-Sep-28 03:34N 49°43' W 000°50'113.4
2017-Sep-28 03:30N 49°43' W 000°52'713.6
2017-Sep-28 03:00N 49°46' W 001°01'714.0
2017-Sep-28 02:30N 49°49' W 001°10'6014.5
2017-Sep-27 22:23N 49°50' W 002°43'614.4
2017-Sep-27 22:00N 49°49' W 002°51'1114.2
2017-Sep-27 21:16N 49°46' W 003°07'414.1
2017-Sep-27 21:01N 49°45' W 003°12'714.0
2017-Sep-27 20:30N 49°43' W 003°23'8313.5
2017-Sep-27 14:23N 48°58' W 005°10'1213.3
2017-Sep-27 13:29N 48°52' W 005°25'10313.6
2017-Sep-27 05:53N 47°23' W 006°43'2813.8
2017-Sep-27 03:53N 46°58' W 007°01'40713.0
2017-Sep-25 20:41N 40°30' W 009°50'212.6
2017-Sep-25 20:30N 40°28' W 009°50'3812.4
2017-Sep-25 17:27N 39°50' W 009°50'612.1
2017-Sep-25 16:57N 39°44' W 009°50'512.3
2017-Sep-25 16:30N 39°39' W 009°51'612.1
2017-Sep-25 16:01N 39°33' W 009°51'612.2
2017-Sep-25 15:30N 39°26' W 009°51'  
Track history (hours):
 
Tides and Currents Weather Stations Pressure Air Temp Water Temp Dewpoint Dewpoint Depression Visibility Wind Speed Wind Dir Waves Ship Positions

Mariana

Last reported at 2017-Oct-05 15:19 UTC. Time now 2017-Nov-19 12:24 UTC.
Position N 38°51' W 031°07'.
Warning: this ship's position is 44 days out of date.

Length 180 m; draft 9.4 m.

Type: Cargo ship. MMSI: 373923000.

Date/timePositionNaut miles runAvg speedWind from/ knotsBaromVisibWave heightAir tempDewpointWater temp
2017-Oct-05 15:19N 38°51' W 031°07'611.4
2017-Oct-05 14:46N 38°53' W 030°59'511.7
2017-Oct-05 14:22N 38°55' W 030°54'411.7
2017-Oct-05 14:00N 38°57' W 030°49'611.4
2017-Oct-05 13:30N 38°59' W 030°42'611.7
2017-Oct-05 13:00N 39°02' W 030°35'611.9
2017-Oct-05 12:28N 39°04' W 030°28'511.8
2017-Oct-05 12:00N 39°07' W 030°22'611.9
2017-Oct-05 11:31N 39°09' W 030°15'612.0
2017-Oct-05 11:00N 39°12' W 030°08'611.8
2017-Oct-05 10:30N 39°14' W 030°01'612.2
2017-Oct-05 10:00N 39°17' W 029°54'612.5
2017-Oct-05 09:30N 39°20' W 029°47'612.2
2017-Oct-05 09:00N 39°23' W 029°40'612.1
2017-Oct-05 08:30N 39°26' W 029°33'612.3
2017-Oct-05 08:00N 39°29' W 029°26'612.4
2017-Oct-05 07:31N 39°32' W 029°19'612.1
2017-Oct-05 07:00N 39°35' W 029°12'612.2
2017-Oct-05 06:30N 39°38' W 029°05'612.5
2017-Oct-05 06:01N 39°41' W 028°58'612.4
2017-Oct-05 05:30N 39°44' W 028°51'612.3
2017-Oct-05 05:00N 39°47' W 028°44'612.1
2017-Oct-05 04:31N 39°50' W 028°38'612.1
2017-Oct-05 04:01N 39°53' W 028°31'1012.5
2017-Oct-05 03:13N 39°58' W 028°19'412.1
2017-Oct-05 02:55N 39°60' W 028°15'812.0
2017-Oct-05 02:14N 40°04' W 028°06'7412.6
2017-Oct-04 20:24N 40°40' W 026°42'  
2017-Oct-01 16:25N 47°52' W 008°48'610.3
2017-Oct-01 15:48N 47°55' W 008°39'310.1
2017-Oct-01 15:30N 47°57' W 008°35'610.5
2017-Oct-01 14:55N 47°60' W 008°28'37010.0
2017-Sep-30 01:57N 49°26' E 000°37'2 0.0
2017-Sep-28 13:05N 49°27' E 000°39'112.9
2017-Sep-28 13:00N 49°26' E 000°38'510.6
2017-Sep-28 12:30N 49°29' E 000°31'612.5
2017-Sep-28 12:00N 49°26' E 000°22'612.4
2017-Sep-28 11:30N 49°26' E 000°13'612.5
2017-Sep-28 11:00N 49°27' E 000°03'511.0
2017-Sep-28 10:30N 49°29' W 000°04'2 3.7
2017-Sep-28 09:59N 49°28' W 000°07'0 0.1
2017-Sep-28 09:29N 49°28' W 000°07'0 0.0
2017-Sep-28 08:59N 49°28' W 000°07'0 0.0
2017-Sep-28 08:29N 49°28' W 000°07'0 0.0
2017-Sep-28 07:59N 49°28' W 000°07'0 0.0
2017-Sep-28 07:29N 49°28' W 000°07'0 0.4
2017-Sep-28 06:58N 49°28' W 000°07'0 0.1
2017-Sep-28 06:30N 49°28' W 000°08'2 3.4
2017-Sep-28 06:00N 49°30' W 000°09'5 9.9
2017-Sep-28 05:30N 49°31' W 000°16'612.0
2017-Sep-28 05:00N 49°34' W 000°24'1913.0
2017-Sep-28 03:34N 49°43' W 000°50'113.4
2017-Sep-28 03:30N 49°43' W 000°52'713.6
2017-Sep-28 03:00N 49°46' W 001°01'714.0
2017-Sep-28 02:30N 49°49' W 001°10'6014.5
2017-Sep-27 22:23N 49°50' W 002°43'614.4
2017-Sep-27 22:00N 49°49' W 002°51'1114.2
2017-Sep-27 21:16N 49°46' W 003°07'414.1
2017-Sep-27 21:01N 49°45' W 003°12'714.0
2017-Sep-27 20:30N 49°43' W 003°23'8313.5
2017-Sep-27 14:23N 48°58' W 005°10'1213.3
2017-Sep-27 13:29N 48°52' W 005°25'10313.6
2017-Sep-27 05:53N 47°23' W 006°43'2813.8
2017-Sep-27 03:53N 46°58' W 007°01'40713.0
2017-Sep-25 20:41N 40°30' W 009°50'212.6
2017-Sep-25 20:30N 40°28' W 009°50'3812.4
2017-Sep-25 17:27N 39°50' W 009°50'612.1
2017-Sep-25 16:57N 39°44' W 009°50'512.3
2017-Sep-25 16:30N 39°39' W 009°51'612.1
2017-Sep-25 16:01N 39°33' W 009°51'612.2
2017-Sep-25 15:30N 39°26' W 009°51'  

Dump ship's entire track history